Portada
METAR-TAF:

METAR-TAF

Aeroports :

Illizi, Algèria

latitud: 26-30N, longitud: 008-25E, altitud: 558 m

Observació

L'informe es va fer fa 54 minuts, a les 13:00 UTC
Vent 12 kt del Oest/Nord-Oest
Temperatura 20°C
Humitat 17%
Pressió 1019 hPa
Visibilitat 10 km o més
sense núvols per sota de 1500 mi sense presència de cumulonimbus.

METAR: DAAP 131300Z 29012KT CAVOK 20/M06 Q1019

Hora: 14:54 (13:54 UTC)

Pronòstic

L'informe es va fer fa 2 hores i 54 minuts, a les 11:00 UTC
Pronòstic vàlid del 13 a les 12 UTC al 13 a les 21 UTC
Vent 12 kt del Nord-Oest
Visibilitat: 8000 m

TAF: DAAP 131100Z 1312/1321 32012KT 8000 NSC

Observacions i pronòstics meteorològics de més de 4000 aeroports (METAR i TAF).

Les estacions disponibles són els punts grocs i vermells al mapa.

Posi el ratolí al punt desitjat per veure el nom de l'estació.

Feu clic per veure les observacions i els pronòstics meteorològics.

Per canviar el mapa: feu clic els botons verds amb una creu de color negre per apropar; al botó verd amb un guió per allunyar la imatge; o en les fletxes verdes per a mapes adjacents.


METAR-TAF: